Diagoras — CNA5120 — position and weather

sailwx.info

Track history (hours):
 
Tides and Currents Weather Stations Pressure Air Temp Water Temp Dewpoint Dewpoint Depression Visibility Wind Speed Wind Dir Waves Ship Positions

Diagoras

Last reported at 2017-Sep-26 07:50 UTC. Time now 2017-Sep-26 09:32 UTC.
Position N 35°56' W 005°30'.

Length 141 m; draft 6 m.

Type: Passenger vessel. MMSI: 242534300.

Date/timePositionNaut miles runAvg speedWind from/ knotsBaromVisibWave heightAir tempDewpointWater temp
2017-Sep-26 07:50N 35°56' W 005°30'513.7
2017-Sep-26 07:30N 35°60' W 005°26'8 1.1
2017-Sep-26 00:09N 36°08' W 005°26'1 3.5
2017-Sep-26 00:00N 36°09' W 005°26'510.9
2017-Sep-25 23:30N 36°04' W 005°23'816.9
2017-Sep-25 23:00N 35°56' W 005°28'4 1.2
2017-Sep-25 19:59N 35°54' W 005°31'713.8
2017-Sep-25 19:30N 35°59' W 005°28'814.4
2017-Sep-25 18:58N 36°07' W 005°24'2 3.5
2017-Sep-25 18:18N 36°08' W 005°26'0 0.0
2017-Sep-25 17:54N 36°08' W 005°26'1 1.6
2017-Sep-25 17:12N 36°09' W 005°26'511.5
2017-Sep-25 16:44N 36°04' W 005°23'416.8
2017-Sep-25 16:29N 35°60' W 005°25'5 2.1
2017-Sep-25 13:56N 35°56' W 005°30'614.2
2017-Sep-25 13:30N 36°01' W 005°25'3 1.1
2017-Sep-25 10:44N 36°04' W 005°23'416.1
2017-Sep-25 10:28N 35°59' W 005°24'5 2.0
2017-Sep-25 07:44N 35°56' W 005°30'314.3
2017-Sep-25 07:31N 35°59' W 005°28'9 1.7
2017-Sep-25 02:01N 36°08' W 005°26'0 0.0
2017-Sep-25 01:52N 36°08' W 005°26'0 0.0
2017-Sep-25 01:23N 36°08' W 005°26'0 0.0
2017-Sep-25 00:53N 36°08' W 005°26'0 0.0
2017-Sep-25 00:30N 36°08' W 005°26'0 0.0
2017-Sep-25 00:00N 36°08' W 005°26'2 3.9
2017-Sep-24 23:22N 36°07' W 005°24'616.6
2017-Sep-24 23:00N 36°01' W 005°25'915.6
2017-Sep-24 22:27N 35°54' W 005°31'3 1.0
2017-Sep-24 19:56N 35°56' W 005°30'614.7
2017-Sep-24 19:31N 36°01' W 005°25'7 3.9
2017-Sep-24 17:44N 36°08' W 005°26'1 3.0
2017-Sep-24 17:29N 36°09' W 005°26'510.9
2017-Sep-24 17:00N 36°04' W 005°23'815.9
2017-Sep-24 16:30N 35°57' W 005°28'4 1.9
2017-Sep-24 14:10N 35°53' W 005°31'314.8
2017-Sep-24 13:58N 35°56' W 005°30'715.6
2017-Sep-24 13:30N 36°02' W 005°25'2 0.8
2017-Sep-24 10:24N 35°60' W 005°25'5 2.1
2017-Sep-24 07:58N 35°56' W 005°30'714.3
2017-Sep-24 07:30N 36°02' W 005°25'7 3.5
2017-Sep-24 05:39N 36°08' W 005°26'0 0.0
2017-Sep-24 05:30N 36°08' W 005°26'0 0.0
2017-Sep-24 04:59N 36°08' W 005°26'0 0.0
2017-Sep-24 04:28N 36°08' W 005°26'0 0.0
2017-Sep-24 04:00N 36°08' W 005°26'0 0.0
2017-Sep-24 03:14N 36°08' W 005°26'0 0.0
2017-Sep-24 03:00N 36°08' W 005°26'0 0.0
2017-Sep-24 02:30N 36°08' W 005°26'0 0.0
2017-Sep-24 02:00N 36°08' W 005°26'0 0.2
2017-Sep-24 01:31N 36°08' W 005°26'4 8.3
2017-Sep-24 01:00N 36°05' W 005°22'714.2
2017-Sep-24 00:30N 35°59' W 005°26'4 1.2
2017-Sep-23 20:40N 35°56' W 005°31'213.4
2017-Sep-23 20:31N 35°58' W 005°29'713.9
2017-Sep-23 20:00N 36°04' W 005°24'  
2017-Sep-21 02:07N 36°08' W 005°26'0 0.0
2017-Sep-21 01:43N 36°08' W 005°26'0 0.6
2017-Sep-21 01:26N 36°08' W 005°26'2 4.1
2017-Sep-21 01:00N 36°08' W 005°24'714.5
2017-Sep-21 00:30N 36°01' W 005°24'915.4
2017-Sep-20 23:55N 35°54' W 005°31'1 0.4
2017-Sep-20 21:35N 35°53' W 005°31'313.3
2017-Sep-20 21:22N 35°56' W 005°30'514.7
2017-Sep-20 21:00N 36°00' W 005°26'814.5
2017-Sep-20 20:27N 36°08' W 005°24'6 2.6
2017-Sep-20 18:03N 36°02' W 005°23'216.8
2017-Sep-20 17:56N 35°60' W 005°24'7 1.6
2017-Sep-20 13:58N 35°56' W 005°31'715.4
2017-Sep-20 13:30N 36°02' W 005°25'2 0.9
2017-Sep-20 10:50N 35°59' W 005°25'5 1.8
2017-Sep-20 08:18N 35°56' W 005°30'414.7
2017-Sep-20 08:01N 35°60' W 005°27'8 3.1
2017-Sep-20 05:26N 36°08' W 005°26'0 0.0
2017-Sep-20 04:55N 36°08' W 005°26'0 0.0
2017-Sep-20 04:11N 36°08' W 005°26'0 0.0
2017-Sep-20 03:48N 36°08' W 005°26'0 0.0
2017-Sep-20 02:49N 36°08' W 005°26'0 0.0
2017-Sep-20 02:16N 36°08' W 005°26'0 0.0
2017-Sep-20 01:58N 36°08' W 005°26'0 0.0
2017-Sep-20 01:31N 36°08' W 005°26'0 0.2
2017-Sep-20 01:00N 36°08' W 005°26'0 0.4
2017-Sep-20 00:22N 36°08' W 005°26'2 4.5
2017-Sep-20 00:00N 36°09' W 005°25'1010.4
2017-Sep-19 23:00N 35°59' W 005°26'4 1.5
2017-Sep-19 20:17N 35°56' W 005°30'414.3
2017-Sep-19 20:01N 35°59' W 005°27'713.4
2017-Sep-19 19:30N 36°06' W 005°24'3 4.8
2017-Sep-19 18:51N 36°08' W 005°26'0 0.0
2017-Sep-19 18:29N 36°08' W 005°26'0 0.0
2017-Sep-19 17:58N 36°08' W 005°26'2 4.0
2017-Sep-19 17:31N 36°09' W 005°24'611.9
2017-Sep-19 17:00N 36°03' W 005°24'8 2.9
2017-Sep-19 14:06N 35°56' W 005°30'115.1
2017-Sep-19 14:00N 35°57' W 005°29'814.0
2017-Sep-19 13:27N 36°04' W 005°24'5 2.5
2017-Sep-19 11:38N 36°08' W 005°26'1 4.7
2017-Sep-19 11:24N 36°09' W 005°26'511.7
2017-Sep-19 10:58N 36°04' W 005°23'716.2
2017-Sep-19 10:30N 35°58' W 005°28'2 0.9
2017-Sep-19 07:56N 35°56' W 005°30'614.2
2017-Sep-19 07:30N 36°01' W 005°25'4 0.5
2017-Sep-18 23:37N 36°04' W 005°23'617.0
2017-Sep-18 23:16N 35°59' W 005°25'5 1.8
2017-Sep-18 20:38N 35°56' W 005°30'214.7
2017-Sep-18 20:30N 35°58' W 005°29'612.8
2017-Sep-18 20:00N 36°02' W 005°24'1 0.2
2017-Sep-18 17:06N 36°03' W 005°23'418.6
2017-Sep-18 16:52N 35°59' W 005°25'4 1.7
2017-Sep-18 14:17N 35°56' W 005°30'414.0
2017-Sep-18 13:59N 35°60' W 005°27'4 1.1
2017-Sep-18 10:47N 36°02' W 005°23'517.3
2017-Sep-18 10:31N 35°58' W 005°27'3 1.2
2017-Sep-18 08:07N 35°56' W 005°30'215.2
2017-Sep-18 08:00N 35°58' W 005°29'3 0.5
2017-Sep-18 01:26N 35°60' W 005°25'5 1.6
2017-Sep-17 22:05N 35°56' W 005°30'115.7
2017-Sep-17 22:00N 35°57' W 005°29'714.1
2017-Sep-17 21:30N 36°03' W 005°24'6 2.8
2017-Sep-17 19:21N 36°09' W 005°26'5 9.7
2017-Sep-17 18:53N 36°05' W 005°23'717.4
2017-Sep-17 18:27N 35°58' W 005°26'3 1.1
2017-Sep-17 15:11N 35°56' W 005°30'213.7
2017-Sep-17 15:00N 35°58' W 005°29'712.6
2017-Sep-17 14:29N 36°04' W 005°24'5 2.4
2017-Sep-17 12:28N 36°08' W 005°26'6 8.2
2017-Sep-17 11:44N 36°02' W 005°24'517.0
2017-Sep-17 11:25N 35°58' W 005°27'3 0.9
2017-Sep-17 08:14N 35°56' W 005°30'414.8
2017-Sep-17 07:59N 35°59' W 005°27'5 0.9
2017-Sep-17 02:03N 36°03' W 005°23'116.8
2017-Sep-17 02:00N 36°02' W 005°23'8 1.8
2017-Sep-16 21:39N 35°56' W 005°30'215.7
2017-Sep-16 21:31N 35°58' W 005°29'714.0
2017-Sep-16 21:00N 36°04' W 005°23'5 2.4
2017-Sep-16 19:02N 36°08' W 005°26'1 5.4
2017-Sep-16 18:51N 36°09' W 005°26'510.2
2017-Sep-16 18:21N 36°04' W 005°23'617.7
2017-Sep-16 18:00N 35°59' W 005°26'4 1.1
2017-Sep-16 14:28N 35°56' W 005°30'511.7
2017-Sep-16 14:01N 36°00' W 005°25'8 4.3
2017-Sep-16 12:11N 36°08' W 005°26'1 3.6
2017-Sep-16 12:00N 36°09' W 005°26'710.8
2017-Sep-16 11:23N 36°02' W 005°24'617.1
2017-Sep-16 11:00N 35°57' W 005°28'1 0.5
2017-Sep-16 08:09N 35°56' W 005°30'214.3
2017-Sep-16 08:00N 35°58' W 005°29'  
Track history (hours):
 
Tides and Currents Weather Stations Pressure Air Temp Water Temp Dewpoint Dewpoint Depression Visibility Wind Speed Wind Dir Waves Ship Positions

Diagoras

Last reported at 2017-Sep-26 07:50 UTC. Time now 2017-Sep-26 09:32 UTC.
Position N 35°56' W 005°30'.

Length 141 m; draft 6 m.

Type: Passenger vessel. MMSI: 242534300.

Date/timePositionNaut miles runAvg speedWind from/ knotsBaromVisibWave heightAir tempDewpointWater temp
2017-Sep-26 07:50N 35°56' W 005°30'513.7
2017-Sep-26 07:30N 35°60' W 005°26'8 1.1
2017-Sep-26 00:09N 36°08' W 005°26'1 3.5
2017-Sep-26 00:00N 36°09' W 005°26'510.9
2017-Sep-25 23:30N 36°04' W 005°23'816.9
2017-Sep-25 23:00N 35°56' W 005°28'4 1.2
2017-Sep-25 19:59N 35°54' W 005°31'713.8
2017-Sep-25 19:30N 35°59' W 005°28'814.4
2017-Sep-25 18:58N 36°07' W 005°24'2 3.5
2017-Sep-25 18:18N 36°08' W 005°26'0 0.0
2017-Sep-25 17:54N 36°08' W 005°26'1 1.6
2017-Sep-25 17:12N 36°09' W 005°26'511.5
2017-Sep-25 16:44N 36°04' W 005°23'416.8
2017-Sep-25 16:29N 35°60' W 005°25'5 2.1
2017-Sep-25 13:56N 35°56' W 005°30'614.2
2017-Sep-25 13:30N 36°01' W 005°25'3 1.1
2017-Sep-25 10:44N 36°04' W 005°23'416.1
2017-Sep-25 10:28N 35°59' W 005°24'5 2.0
2017-Sep-25 07:44N 35°56' W 005°30'314.3
2017-Sep-25 07:31N 35°59' W 005°28'9 1.7
2017-Sep-25 02:01N 36°08' W 005°26'0 0.0
2017-Sep-25 01:52N 36°08' W 005°26'0 0.0
2017-Sep-25 01:23N 36°08' W 005°26'0 0.0
2017-Sep-25 00:53N 36°08' W 005°26'0 0.0
2017-Sep-25 00:30N 36°08' W 005°26'0 0.0
2017-Sep-25 00:00N 36°08' W 005°26'2 3.9
2017-Sep-24 23:22N 36°07' W 005°24'616.6
2017-Sep-24 23:00N 36°01' W 005°25'915.6
2017-Sep-24 22:27N 35°54' W 005°31'3 1.0
2017-Sep-24 19:56N 35°56' W 005°30'614.7
2017-Sep-24 19:31N 36°01' W 005°25'7 3.9
2017-Sep-24 17:44N 36°08' W 005°26'1 3.0
2017-Sep-24 17:29N 36°09' W 005°26'510.9
2017-Sep-24 17:00N 36°04' W 005°23'815.9
2017-Sep-24 16:30N 35°57' W 005°28'4 1.9
2017-Sep-24 14:10N 35°53' W 005°31'314.8
2017-Sep-24 13:58N 35°56' W 005°30'715.6
2017-Sep-24 13:30N 36°02' W 005°25'2 0.8
2017-Sep-24 10:24N 35°60' W 005°25'5 2.1
2017-Sep-24 07:58N 35°56' W 005°30'714.3
2017-Sep-24 07:30N 36°02' W 005°25'7 3.5
2017-Sep-24 05:39N 36°08' W 005°26'0 0.0
2017-Sep-24 05:30N 36°08' W 005°26'0 0.0
2017-Sep-24 04:59N 36°08' W 005°26'0 0.0
2017-Sep-24 04:28N 36°08' W 005°26'0 0.0
2017-Sep-24 04:00N 36°08' W 005°26'0 0.0
2017-Sep-24 03:14N 36°08' W 005°26'0 0.0
2017-Sep-24 03:00N 36°08' W 005°26'0 0.0
2017-Sep-24 02:30N 36°08' W 005°26'0 0.0
2017-Sep-24 02:00N 36°08' W 005°26'0 0.2
2017-Sep-24 01:31N 36°08' W 005°26'4 8.3
2017-Sep-24 01:00N 36°05' W 005°22'714.2
2017-Sep-24 00:30N 35°59' W 005°26'4 1.2
2017-Sep-23 20:40N 35°56' W 005°31'213.4
2017-Sep-23 20:31N 35°58' W 005°29'713.9
2017-Sep-23 20:00N 36°04' W 005°24'  
2017-Sep-21 02:07N 36°08' W 005°26'0 0.0
2017-Sep-21 01:43N 36°08' W 005°26'0 0.6
2017-Sep-21 01:26N 36°08' W 005°26'2 4.1
2017-Sep-21 01:00N 36°08' W 005°24'714.5
2017-Sep-21 00:30N 36°01' W 005°24'915.4
2017-Sep-20 23:55N 35°54' W 005°31'1 0.4
2017-Sep-20 21:35N 35°53' W 005°31'313.3
2017-Sep-20 21:22N 35°56' W 005°30'514.7
2017-Sep-20 21:00N 36°00' W 005°26'814.5
2017-Sep-20 20:27N 36°08' W 005°24'6 2.6
2017-Sep-20 18:03N 36°02' W 005°23'216.8
2017-Sep-20 17:56N 35°60' W 005°24'7 1.6
2017-Sep-20 13:58N 35°56' W 005°31'715.4
2017-Sep-20 13:30N 36°02' W 005°25'2 0.9
2017-Sep-20 10:50N 35°59' W 005°25'5 1.8
2017-Sep-20 08:18N 35°56' W 005°30'414.7
2017-Sep-20 08:01N 35°60' W 005°27'8 3.1
2017-Sep-20 05:26N 36°08' W 005°26'0 0.0
2017-Sep-20 04:55N 36°08' W 005°26'0 0.0
2017-Sep-20 04:11N 36°08' W 005°26'0 0.0
2017-Sep-20 03:48N 36°08' W 005°26'0 0.0
2017-Sep-20 02:49N 36°08' W 005°26'0 0.0
2017-Sep-20 02:16N 36°08' W 005°26'0 0.0
2017-Sep-20 01:58N 36°08' W 005°26'0 0.0
2017-Sep-20 01:31N 36°08' W 005°26'0 0.2
2017-Sep-20 01:00N 36°08' W 005°26'0 0.4
2017-Sep-20 00:22N 36°08' W 005°26'2 4.5
2017-Sep-20 00:00N 36°09' W 005°25'1010.4
2017-Sep-19 23:00N 35°59' W 005°26'4 1.5
2017-Sep-19 20:17N 35°56' W 005°30'414.3
2017-Sep-19 20:01N 35°59' W 005°27'713.4
2017-Sep-19 19:30N 36°06' W 005°24'3 4.8
2017-Sep-19 18:51N 36°08' W 005°26'0 0.0
2017-Sep-19 18:29N 36°08' W 005°26'0 0.0
2017-Sep-19 17:58N 36°08' W 005°26'2 4.0
2017-Sep-19 17:31N 36°09' W 005°24'611.9
2017-Sep-19 17:00N 36°03' W 005°24'8 2.9
2017-Sep-19 14:06N 35°56' W 005°30'115.1
2017-Sep-19 14:00N 35°57' W 005°29'814.0
2017-Sep-19 13:27N 36°04' W 005°24'5 2.5
2017-Sep-19 11:38N 36°08' W 005°26'1 4.7
2017-Sep-19 11:24N 36°09' W 005°26'511.7
2017-Sep-19 10:58N 36°04' W 005°23'716.2
2017-Sep-19 10:30N 35°58' W 005°28'2 0.9
2017-Sep-19 07:56N 35°56' W 005°30'614.2
2017-Sep-19 07:30N 36°01' W 005°25'4 0.5
2017-Sep-18 23:37N 36°04' W 005°23'617.0
2017-Sep-18 23:16N 35°59' W 005°25'5 1.8
2017-Sep-18 20:38N 35°56' W 005°30'214.7
2017-Sep-18 20:30N 35°58' W 005°29'612.8
2017-Sep-18 20:00N 36°02' W 005°24'1 0.2
2017-Sep-18 17:06N 36°03' W 005°23'418.6
2017-Sep-18 16:52N 35°59' W 005°25'4 1.7
2017-Sep-18 14:17N 35°56' W 005°30'414.0
2017-Sep-18 13:59N 35°60' W 005°27'4 1.1
2017-Sep-18 10:47N 36°02' W 005°23'517.3
2017-Sep-18 10:31N 35°58' W 005°27'3 1.2
2017-Sep-18 08:07N 35°56' W 005°30'215.2
2017-Sep-18 08:00N 35°58' W 005°29'3 0.5
2017-Sep-18 01:26N 35°60' W 005°25'5 1.6
2017-Sep-17 22:05N 35°56' W 005°30'115.7
2017-Sep-17 22:00N 35°57' W 005°29'714.1
2017-Sep-17 21:30N 36°03' W 005°24'6 2.8
2017-Sep-17 19:21N 36°09' W 005°26'5 9.7
2017-Sep-17 18:53N 36°05' W 005°23'717.4
2017-Sep-17 18:27N 35°58' W 005°26'3 1.1
2017-Sep-17 15:11N 35°56' W 005°30'213.7
2017-Sep-17 15:00N 35°58' W 005°29'712.6
2017-Sep-17 14:29N 36°04' W 005°24'5 2.4
2017-Sep-17 12:28N 36°08' W 005°26'6 8.2
2017-Sep-17 11:44N 36°02' W 005°24'517.0
2017-Sep-17 11:25N 35°58' W 005°27'3 0.9
2017-Sep-17 08:14N 35°56' W 005°30'414.8
2017-Sep-17 07:59N 35°59' W 005°27'5 0.9
2017-Sep-17 02:03N 36°03' W 005°23'116.8
2017-Sep-17 02:00N 36°02' W 005°23'8 1.8
2017-Sep-16 21:39N 35°56' W 005°30'215.7
2017-Sep-16 21:31N 35°58' W 005°29'714.0
2017-Sep-16 21:00N 36°04' W 005°23'5 2.4
2017-Sep-16 19:02N 36°08' W 005°26'1 5.4
2017-Sep-16 18:51N 36°09' W 005°26'510.2
2017-Sep-16 18:21N 36°04' W 005°23'617.7
2017-Sep-16 18:00N 35°59' W 005°26'4 1.1
2017-Sep-16 14:28N 35°56' W 005°30'511.7
2017-Sep-16 14:01N 36°00' W 005°25'8 4.3
2017-Sep-16 12:11N 36°08' W 005°26'1 3.6
2017-Sep-16 12:00N 36°09' W 005°26'710.8
2017-Sep-16 11:23N 36°02' W 005°24'617.1
2017-Sep-16 11:00N 35°57' W 005°28'1 0.5
2017-Sep-16 08:09N 35°56' W 005°30'214.3
2017-Sep-16 08:00N 35°58' W 005°29'  

Dump ship's entire track history